Time;durP1;ratioP1;P1;durP2;ratioP2;P2;SDS_P1;SDS_P2;PMS_P1;PMS_P2;Temp;Humidity;BMP_temperature;BMP_pressure;BME280_temperature;BME280_humidity;BME280_pressure;Samples;Min_cycle;Max_cycle;Signal;HPM_P1;HPM_P2
2024/03/18 00:02:24;;;;;;;15.18;12.25;;;;;;;14.05;97.58;98827.47;5093578;28;20027;-47
2024/03/18 00:04:50;;;;;;;12.88;9.85;;;;;;;14.57;98.16;98823.44;5094855;28;20028;-47
2024/03/18 00:07:16;;;;;;;6.78;5.28;;;;;;;14.87;94.97;98814.72;5094800;28;20464;-47
2024/03/18 00:09:42;;;;;;;28.05;18.92;;;;;;;14.83;91.70;98825.94;5095104;28;20031;-47
2024/03/18 00:12:08;;;;;;;53.10;47.72;;;;;;;14.81;90.74;98823.56;5094674;28;20028;-47
2024/03/18 00:14:34;;;;;;;16.25;11.15;;;;;;;14.84;90.90;98814.38;5093290;28;20024;-47
2024/03/18 00:16:59;;;;;;;9.90;5.18;;;;;;;14.75;89.00;98806.75;5094470;28;20031;-47
2024/03/18 00:19:26;;;;;;;10.65;5.90;;;;;;;14.51;88.20;98805.81;5094565;28;20027;-47
2024/03/18 00:21:51;;;;;;;7.65;5.70;;;;;;;14.28;88.34;98805.69;5094455;28;20031;-47
2024/03/18 00:24:19;;;;;;;7.25;4.47;;;;;;;14.12;87.93;98799.97;5092872;28;20064;-47
2024/03/18 00:26:44;;;;;;;6.35;3.90;;;;;;;14.02;87.64;98802.31;5093066;28;20038;-47
2024/03/18 00:29:11;;;;;;;6.13;4.28;;;;;;;13.94;86.75;98803.44;5094653;28;20024;-47
2024/03/18 00:31:37;;;;;;;7.95;5.78;;;;;;;13.89;86.35;98802.47;5094256;28;20429;-47
2024/03/18 00:34:03;;;;;;;13.35;7.97;;;;;;;13.84;86.64;98794.41;5094238;28;20031;-47
2024/03/18 00:36:32;;;;;;;11.80;6.82;;;;;;;13.85;86.70;98801.31;5094197;28;20024;-47
2024/03/18 00:39:00;;;;;;;9.55;6.38;;;;;;;13.85;86.05;98793.38;5093041;28;20028;-47
2024/03/18 00:41:45;;;;;;;6.82;4.30;;;;;;;13.84;85.39;98789.13;5092734;28;20038;-47
2024/03/18 00:44:15;;;;;;;8.38;5.65;;;;;;;13.77;84.98;98771.53;5094049;28;20107;-47
2024/03/18 00:46:46;;;;;;;9.50;4.88;;;;;;;13.70;85.41;98765.53;5094080;28;20393;-47
2024/03/18 00:49:12;;;;;;;7.00;3.40;;;;;;;13.72;85.43;98744.19;5092657;28;20028;-47
2024/03/18 00:51:39;;;;;;;11.40;9.02;;;;;;;13.65;86.22;98749.53;5092984;28;20076;-47
2024/03/18 00:54:05;;;;;;;5.78;3.65;;;;;;;13.59;86.58;98739.88;5092612;28;20031;-47
2024/03/18 00:56:32;;;;;;;6.85;3.88;;;;;;;13.53;87.13;98746.81;5093900;28;20039;-47
2024/03/18 00:59:03;;;;;;;8.57;3.75;;;;;;;13.48;87.83;98740.59;5093806;28;20541;-47
2024/03/18 01:01:28;;;;;;;7.38;6.68;;;;;;;13.45;87.43;98749.75;5093009;28;20172;-47
2024/03/18 01:03:55;;;;;;;5.63;3.70;;;;;;;13.39;88.38;98747.97;5092389;28;20499;-47
2024/03/18 01:06:24;;;;;;;7.72;4.38;;;;;;;13.34;88.70;98743.34;5093751;28;20019;-47
2024/03/18 01:08:51;;;;;;;6.53;4.05;;;;;;;13.32;88.86;98734.88;5091522;28;20024;-47
2024/03/18 01:11:16;;;;;;;23.13;20.77;;;;;;;13.34;89.64;98719.63;5093582;28;20020;-47
2024/03/18 01:13:47;;;;;;;6.93;4.30;;;;;;;13.61;90.30;98718.56;5092348;28;20508;-47
2024/03/18 01:16:17;;;;;;;9.27;5.45;;;;;;;13.92;89.75;98707.88;5093379;28;20080;-47
2024/03/18 01:18:43;;;;;;;5.88;4.00;;;;;;;14.10;88.94;98714.13;5093481;28;20032;-47
2024/03/18 01:21:11;;;;;;;9.30;8.25;;;;;;;14.09;86.41;98712.53;5093355;28;20102;-47
2024/03/18 01:23:36;;;;;;;7.45;5.63;;;;;;;14.04;86.28;98700.00;5091857;28;20044;-47
2024/03/18 01:26:02;;;;;;;6.30;4.05;;;;;;;14.23;87.38;98698.13;5093264;28;20065;-47
2024/03/18 01:28:29;;;;;;;8.52;7.70;;;;;;;14.42;84.53;98690.16;5091996;28;20032;-47
2024/03/18 01:30:56;;;;;;;17.15;15.60;;;;;;;14.67;85.41;98690.84;5093190;28;20219;-47
2024/03/18 01:33:23;;;;;;;6.78;5.22;;;;;;;14.72;82.84;98692.78;5093428;28;20054;-47
2024/03/18 01:35:49;;;;;;;5.50;3.65;;;;;;;14.65;82.41;98690.25;5093104;28;20112;-47
2024/03/18 01:38:15;;;;;;;5.93;2.53;;;;;;;14.50;80.99;98689.84;5093127;28;20027;-47
2024/03/18 01:40:44;;;;;;;8.18;3.65;;;;;;;14.29;80.55;98691.16;5093085;28;20024;-47
2024/03/18 01:43:10;;;;;;;18.48;16.67;;;;;;;14.20;81.73;98682.72;5092997;28;20382;-47
2024/03/18 01:45:38;;;;;;;7.35;4.72;;;;;;;14.55;83.45;98690.78;5092763;28;20081;-47
2024/03/18 01:48:05;;;;;;;6.93;2.97;;;;;;;14.62;82.73;98688.06;5092931;28;20051;-47
2024/03/18 01:50:34;;;;;;;15.02;13.65;;;;;;;14.67;83.23;98685.56;5092776;28;20036;-47
2024/03/18 01:53:00;;;;;;;7.05;4.30;;;;;;;14.75;83.52;98690.50;5093035;28;20116;-47
2024/03/18 01:55:26;;;;;;;8.10;4.30;;;;;;;14.82;83.36;98682.47;5092701;28;20442;-47
2024/03/18 01:57:52;;;;;;;5.75;3.10;;;;;;;14.83;83.03;98686.75;5092687;28;20031;-47
2024/03/18 02:00:32;;;;;;;6.93;3.78;;;;;;;14.73;82.40;98675.94;5092632;28;20399;-47
2024/03/18 02:03:01;;;;;;;29.52;26.65;;;;;;;14.51;82.49;98670.34;5092921;28;20038;-47
2024/03/18 02:05:27;;;;;;;7.97;6.57;;;;;;;14.56;84.29;98681.84;5092828;28;20051;-47
2024/03/18 02:07:53;;;;;;;9.40;3.10;;;;;;;14.84;83.93;98676.97;5092559;28;20436;-47
2024/03/18 02:10:19;;;;;;;8.55;6.47;;;;;;;14.76;82.64;98675.47;5091182;28;20028;-47
2024/03/18 02:12:45;;;;;;;13.30;11.32;;;;;;;14.51;82.17;98667.69;5091172;28;20078;-47
2024/03/18 02:15:11;;;;;;;5.95;3.08;;;;;;;14.38;82.01;98668.69;5091078;28;20081;-47
2024/03/18 02:17:39;;;;;;;102.07;93.50;;;;;;;14.51;82.56;98662.41;5092313;28;20027;-47
2024/03/18 02:20:06;;;;;;;21.55;19.60;;;;;;;14.94;83.64;98667.44;5092209;28;20458;-47
2024/03/18 02:22:32;;;;;;;27.40;24.77;;;;;;;15.27;82.22;98655.50;5090982;28;20456;-47
2024/03/18 02:24:57;;;;;;;7.72;5.45;;;;;;;15.31;80.27;98656.66;5090707;28;20101;-47
2024/03/18 02:27:28;;;;;;;5.55;3.53;;;;;;;15.26;79.80;98667.09;5090914;28;20024;-47
2024/03/18 02:29:57;;;;;;;10.05;5.80;;;;;;;15.24;79.73;98665.72;5090897;28;20024;-47
2024/03/18 02:32:22;;;;;;;9.85;6.40;;;;;;;15.32;80.31;98660.09;5074032;28;20123;-47
2024/03/18 02:34:48;;;;;;;8.23;5.57;;;;;;;15.40;80.05;98653.63;5090777;28;20162;-47
2024/03/18 02:37:14;;;;;;;10.35;7.30;;;;;;;15.44;80.42;98650.28;5092334;28;20061;-47
2024/03/18 02:39:40;;;;;;;5.18;3.20;;;;;;;15.44;79.87;98646.84;5092090;28;20074;-47
2024/03/18 02:42:06;;;;;;;7.47;5.63;;;;;;;15.24;79.43;98644.56;5092030;28;20038;-47
2024/03/18 02:44:32;;;;;;;5.53;3.03;;;;;;;15.28;79.75;98645.72;5091872;28;20028;-47
2024/03/18 02:46:58;;;;;;;6.63;3.63;;;;;;;14.90;77.98;98645.16;5091928;28;20072;-47
2024/03/18 02:49:24;;;;;;;7.53;3.78;;;;;;;14.58;78.06;98628.81;5092016;28;20804;-47
2024/03/18 02:51:50;;;;;;;8.55;3.88;;;;;;;14.39;79.15;98628.06;5091946;28;20444;-47
2024/03/18 02:54:15;;;;;;;5.93;3.30;;;;;;;14.24;79.40;98632.94;5091873;28;20028;-47
2024/03/18 02:56:41;;;;;;;7.85;4.07;;;;;;;14.12;79.88;98635.53;5091911;28;20401;-47
2024/03/18 02:59:07;;;;;;;6.15;4.30;;;;;;;14.15;81.08;98627.19;5090511;28;20523;-47
2024/03/18 03:01:32;;;;;;;10.40;4.75;;;;;;;14.14;81.51;98620.28;5090494;28;20508;-47
2024/03/18 03:03:58;;;;;;;12.95;4.18;;;;;;;14.17;81.86;98631.22;5090420;28;20081;-47
2024/03/18 03:06:24;;;;;;;11.50;7.05;;;;;;;14.21;82.22;98625.50;5091818;28;20556;-47
2024/03/18 03:08:50;;;;;;;7.90;4.75;;;;;;;14.28;81.59;98621.69;5090721;28;20028;-47
2024/03/18 03:11:15;;;;;;;8.93;4.38;;;;;;;14.46;nan;98617.38;5091726;28;20512;-47
2024/03/18 03:13:41;;;;;;;18.15;11.13;;;;;;;14.83;81.15;98601.38;5091717;28;20024;-47
2024/03/18 03:16:10;;;;;;;8.43;5.00;;;;;;;15.25;80.34;98602.03;5091722;28;20484;-47
2024/03/18 03:18:36;;;;;;;9.95;5.88;;;;;;;15.52;78.68;98594.38;5091706;28;20051;-47
2024/03/18 03:21:05;;;;;;;7.10;3.20;;;;;;;15.50;77.05;98593.81;5091698;28;20052;-47
2024/03/18 03:23:32;;;;;;;8.55;3.53;;;;;;;15.51;75.64;98586.69;5091357;28;20040;-48
2024/03/18 03:25:58;;;;;;;10.30;3.60;;;;;;;15.49;74.88;98591.41;5091635;28;20105;-47
2024/03/18 03:28:24;;;;;;;15.27;7.03;;;;;;;15.46;74.64;98583.94;5091569;28;20506;-47
2024/03/18 03:31:05;;;;;;;14.85;10.18;;;;;;;15.39;73.67;98570.84;5091359;28;20123;-47
2024/03/18 03:33:33;;;;;;;17.73;13.35;;;;;;;15.30;74.87;98569.63;5095880;28;20066;-47
2024/03/18 03:36:00;;;;;;;8.52;5.95;;;;;;;15.21;75.41;98558.56;5095482;28;20052;-47
2024/03/18 03:38:26;;;;;;;12.27;4.40;;;;;;;15.14;75.64;98553.44;5095338;28;20028;-47
2024/03/18 03:40:55;;;;;;;15.32;13.15;;;;;;;15.01;77.03;98560.81;5095362;28;20028;-47
2024/03/18 03:43:21;;;;;;;7.60;5.22;;;;;;;15.01;76.77;98560.81;5095290;28;20031;-47
2024/03/18 03:45:55;;;;;;;10.82;4.45;;;;;;;15.04;75.25;98555.84;5093965;28;20032;-48
2024/03/18 03:48:25;;;;;;;6.20;3.05;;;;;;;15.12;73.91;98560.00;5095558;28;20043;-47
2024/03/18 03:50:51;;;;;;;4.88;2.83;;;;;;;15.15;73.24;98552.41;5093857;28;20039;-47
2024/03/18 03:53:18;;;;;;;7.20;3.28;;;;;;;15.22;72.51;98557.56;5093888;28;20216;-47
2024/03/18 03:55:51;;;;;;;9.32;3.83;;;;;;;15.28;72.32;98527.53;5095398;28;20385;-47
2024/03/18 03:58:17;;;;;;;9.40;3.58;;;;;;;15.37;71.58;98563.16;5095091;28;20477;-47
2024/03/18 04:00:46;;;;;;;10.85;4.07;;;;;;;15.44;70.55;98555.09;5095013;28;20097;-47
2024/03/18 04:03:22;;;;;;;7.70;3.10;;;;;;;15.46;69.77;98571.53;5094997;28;20035;-47
2024/03/18 04:05:47;;;;;;;5.47;3.20;;;;;;;15.43;69.83;98545.53;5093892;28;20428;-47
2024/03/18 04:08:13;;;;;;;7.55;3.10;;;;;;;15.47;70.23;98570.47;5093800;28;20032;-47
2024/03/18 04:10:39;;;;;;;6.32;3.10;;;;;;;15.49;69.93;98536.69;5095163;28;20016;-47
2024/03/18 04:13:04;;;;;;;10.50;4.55;;;;;;;15.48;69.49;98548.28;5093443;28;20023;-47
2024/03/18 04:15:31;;;;;;;9.68;4.25;;;;;;;15.47;69.51;98543.22;5095024;28;20386;-47
2024/03/18 04:17:57;;;;;;;5.22;2.88;;;;;;;15.46;69.26;98544.28;5094623;28;20027;-47
2024/03/18 04:20:23;;;;;;;9.77;3.90;;;;;;;15.42;69.60;98546.56;5094650;28;20034;-47
2024/03/18 04:22:51;;;;;;;13.85;7.22;;;;;;;15.48;69.36;98550.13;5093578;28;20019;-47
2024/03/18 04:25:19;;;;;;;7.45;4.18;;;;;;;15.53;69.51;98552.84;5094244;28;20410;-47
2024/03/18 04:27:46;;;;;;;6.10;3.95;;;;;;;15.58;68.86;98548.47;5093195;28;20128;-47
2024/03/18 04:30:17;;;;;;;8.75;4.38;;;;;;;15.59;68.47;98549.28;5093116;28;20375;-47
2024/03/18 04:32:49;;;;;;;6.20;3.63;;;;;;;15.56;68.81;98552.41;5093115;28;20050;-47
2024/03/18 04:35:18;;;;;;;5.82;4.18;;;;;;;15.58;68.45;98552.97;5094401;28;20490;-47
2024/03/18 04:37:47;;;;;;;9.25;4.55;;;;;;;15.62;68.59;98554.09;5093074;28;20047;-47
2024/03/18 04:40:17;;;;;;;5.82;4.00;;;;;;;15.66;68.59;98557.88;5094210;28;20059;-47
2024/03/18 04:42:44;;;;;;;11.05;5.00;;;;;;;15.71;68.63;98547.38;5092948;28;20055;-47
2024/03/18 04:45:13;;;;;;;20.92;17.15;;;;;;;15.68;69.59;98549.72;5094099;28;20063;-47
2024/03/18 04:47:44;;;;;;;11.98;10.70;;;;;;;15.46;71.02;98542.44;5094089;28;20028;-47
2024/03/18 04:50:15;;;;;;;8.13;4.05;;;;;;;15.20;71.92;98550.91;5092752;28;20024;-47
2024/03/18 04:52:44;;;;;;;12.57;10.55;;;;;;;15.11;73.12;98555.72;5092697;28;20020;-47
2024/03/18 04:55:11;;;;;;;9.35;6.53;;;;;;;15.08;72.92;98546.44;5093953;28;20552;-47
2024/03/18 04:57:38;;;;;;;10.07;4.30;;;;;;;15.11;73.82;98547.78;5092600;28;20034;-47
2024/03/18 05:00:07;;;;;;;11.40;5.93;;;;;;;14.97;74.51;98547.28;5092771;28;20024;-47
2024/03/18 05:02:32;;;;;;;12.68;7.57;;;;;;;14.74;76.11;98561.28;5093855;28;20394;-46
2024/03/18 05:04:58;;;;;;;12.32;10.45;;;;;;;14.54;78.00;98553.69;5093628;28;20028;-47
2024/03/18 05:07:24;;;;;;;9.63;6.07;;;;;;;14.48;79.17;98552.75;5093673;28;20020;-47
2024/03/18 05:09:55;;;;;;;9.40;4.80;;;;;;;14.42;81.01;98548.38;5093720;28;20612;-47
2024/03/18 05:12:20;;;;;;;9.60;4.47;;;;;;;14.31;82.17;98557.13;5093895;28;20100;-46
2024/03/18 05:14:47;;;;;;;7.03;3.78;;;;;;;14.16;84.58;98550.41;5093592;28;20050;-46
2024/03/18 05:17:14;;;;;;;7.50;4.00;;;;;;;14.10;86.66;98539.97;5093454;28;20073;-47
2024/03/18 05:19:40;;;;;;;10.02;5.00;;;;;;;14.09;87.49;98546.28;5093757;28;20023;-47
2024/03/18 05:22:06;;;;;;;11.23;9.63;;;;;;;14.03;89.10;98537.44;5092058;28;20112;-47
2024/03/18 05:24:33;;;;;;;7.72;4.90;;;;;;;13.96;89.75;98544.63;5092962;28;20119;-46
2024/03/18 05:26:59;;;;;;;8.55;3.92;;;;;;;13.90;91.10;98542.91;5093559;28;20432;-46
2024/03/18 05:29:24;;;;;;;13.18;8.40;;;;;;;13.86;91.83;98555.72;5093163;28;20098;-46
2024/03/18 05:31:55;;;;;;;9.07;3.55;;;;;;;13.91;90.72;98557.72;5091582;28;20162;-46
2024/03/18 05:34:21;;;;;;;7.55;3.70;;;;;;;13.99;91.83;98568.75;5091840;28;20012;-46
2024/03/18 05:36:47;;;;;;;6.80;3.70;;;;;;;14.08;91.01;98556.00;5092064;28;20034;-47
2024/03/18 05:39:13;;;;;;;13.05;6.03;;;;;;;14.21;90.07;98547.09;5092117;28;20108;-47
2024/03/18 05:41:39;;;;;;;10.20;7.40;;;;;;;14.36;89.33;98559.84;5093262;28;20020;-47
2024/03/18 05:44:05;;;;;;;8.02;3.95;;;;;;;14.47;86.92;98550.34;5091903;28;20030;-47
2024/03/18 05:46:31;;;;;;;10.07;4.45;;;;;;;14.55;87.58;98566.66;5092926;28;20044;-47
2024/03/18 05:48:56;;;;;;;6.18;3.15;;;;;;;14.58;87.56;98531.88;5091517;28;20050;-47
2024/03/18 05:51:22;;;;;;;7.28;4.43;;;;;;;14.58;87.16;98550.38;5092792;28;20102;-47
2024/03/18 05:53:48;;;;;;;6.55;3.70;;;;;;;14.51;87.65;98540.94;5091136;28;20024;-47
2024/03/18 05:56:14;;;;;;;7.53;3.92;;;;;;;14.33;88.24;98565.59;5091451;28;20118;-47
2024/03/18 05:58:39;;;;;;;15.48;8.63;;;;;;;14.20;88.23;98545.47;5092702;28;20028;-47
2024/03/18 06:01:11;;;;;;;16.08;11.02;;;;;;;14.18;89.53;98551.00;5092648;28;20051;-47
2024/03/18 06:03:50;;;;;;;9.32;6.40;;;;;;;14.30;90.20;98556.28;5092810;28;20027;-47
2024/03/18 06:06:16;;;;;;;12.15;4.70;;;;;;;14.48;90.38;98554.59;5091285;28;20081;-47
2024/03/18 06:08:43;;;;;;;10.65;3.88;;;;;;;14.65;88.67;98549.44;5092478;28;20020;-47
2024/03/18 06:11:09;;;;;;;10.23;4.72;;;;;;;14.73;88.04;98549.94;5092450;28;20039;-47
2024/03/18 06:13:35;;;;;;;8.75;4.18;;;;;;;14.85;86.01;98538.53;5092521;28;20028;-47
2024/03/18 06:16:04;;;;;;;9.13;3.40;;;;;;;14.92;85.58;98558.50;5092323;28;20027;-47
2024/03/18 06:18:30;;;;;;;8.73;3.28;;;;;;;15.00;84.82;98567.13;5092376;28;20058;-47
2024/03/18 06:20:56;;;;;;;9.13;3.80;;;;;;;15.01;82.47;98574.84;5091016;28;20059;-47
2024/03/18 06:23:25;;;;;;;6.82;4.03;;;;;;;15.07;82.42;98567.81;5092249;28;20123;-48
2024/03/18 06:25:57;;;;;;;9.45;2.97;;;;;;;15.14;81.68;98571.13;5090942;28;20020;-47
2024/03/18 06:28:28;;;;;;;8.25;3.80;;;;;;;15.19;78.94;98568.59;5092226;28;20032;-47
2024/03/18 06:30:55;;;;;;;11.40;5.75;;;;;;;15.24;79.25;98570.53;5092147;28;20490;-47
2024/03/18 06:33:22;;;;;;;5.78;3.00;;;;;;;15.25;77.71;98588.81;5090859;28;20031;-47
2024/03/18 06:35:48;;;;;;;5.75;3.13;;;;;;;15.27;77.47;98565.59;5092148;28;20492;-47
2024/03/18 06:38:15;;;;;;;10.18;3.83;;;;;;;15.36;77.92;98585.34;5092052;28;20024;-47
2024/03/18 06:40:41;;;;;;;6.25;3.58;;;;;;;15.42;76.31;98588.91;5091961;28;20031;-47
2024/03/18 06:43:08;;;;;;;7.65;3.58;;;;;;;15.39;75.74;98594.63;5091105;28;20034;-47
2024/03/18 06:45:35;;;;;;;9.07;4.88;;;;;;;15.44;76.94;98594.75;5090687;28;20500;-47
2024/03/18 06:48:03;;;;;;;7.97;3.25;;;;;;;15.60;76.50;98603.78;5091888;28;20039;-47
2024/03/18 06:50:29;;;;;;;5.72;3.05;;;;;;;15.74;76.81;98622.88;5091806;28;20105;-47
2024/03/18 06:52:57;;;;;;;11.38;5.32;;;;;;;15.95;76.90;98614.25;5092086;28;20500;-47
2024/03/18 06:55:23;;;;;;;9.40;4.35;;;;;;;16.12;76.83;98621.47;5091816;28;20031;-47
2024/03/18 06:57:49;;;;;;;15.77;4.50;;;;;;;16.28;77.33;98633.09;5090527;28;20039;-47
2024/03/18 07:00:19;;;;;;;18.77;5.30;;;;;;;16.53;76.43;98638.84;5090495;28;20028;-47
2024/03/18 07:02:49;;;;;;;20.73;13.95;;;;;;;16.75;76.81;98632.81;5091806;28;20043;-47
2024/03/18 07:05:20;;;;;;;13.57;5.68;;;;;;;16.58;77.86;98648.72;5091827;28;20120;-47
2024/03/18 07:07:46;;;;;;;11.70;3.90;;;;;;;16.26;80.44;98653.72;5096012;28;20032;-47
2024/03/18 07:10:11;;;;;;;12.05;4.00;;;;;;;16.02;83.61;98675.03;5095867;28;20093;-47
2024/03/18 07:12:38;;;;;;;11.70;6.10;;;;;;;15.70;84.73;98682.56;5094945;28;20401;-46
2024/03/18 07:15:12;;;;;;;11.48;7.57;;;;;;;15.25;88.55;98696.41;5094570;28;20127;-46
2024/03/18 07:17:39;;;;;;;19.60;6.97;;;;;;;14.86;92.85;98701.31;5095849;28;20032;-46
2024/03/18 07:20:11;;;;;;;17.77;13.35;;;;;;;14.56;97.17;98718.03;5095837;28;20551;-45
2024/03/18 07:22:41;;;;;;;16.85;10.07;;;;;;;14.68;100.00;98726.78;5096067;28;20024;-46
2024/03/18 07:25:09;;;;;;;15.57;9.07;;;;;;;14.56;100.00;98729.38;5095383;28;20040;-46
2024/03/18 07:27:39;;;;;;;15.10;9.93;;;;;;;14.39;100.00;98738.97;5095692;28;20047;-46
2024/03/18 07:30:06;;;;;;;12.30;8.10;;;;;;;14.27;100.00;98735.47;5095554;28;20085;-46
2024/03/18 07:32:32;;;;;;;24.00;18.25;;;;;;;14.33;100.00;98729.28;5094324;28;20020;-46
2024/03/18 07:34:58;;;;;;;72.68;65.18;;;;;;;14.46;100.00;98726.44;5094185;28;20073;-46
2024/03/18 07:37:23;;;;;;;18.80;14.00;;;;;;;14.71;100.00;98725.53;5095552;28;20398;-46
2024/03/18 07:39:49;;;;;;;50.58;45.42;;;;;;;14.99;100.00;98732.84;5095401;28;20375;-46
2024/03/18 07:42:15;;;;;;;29.15;26.33;;;;;;;15.13;100.00;98736.03;5094064;28;20051;-46
2024/03/18 07:44:42;;;;;;;53.05;48.05;;;;;;;15.20;100.00;98735.97;5095200;28;20031;-45
2024/03/18 07:47:11;;;;;;;37.25;32.63;;;;;;;15.28;100.00;98733.75;5110942;28;20071;-46
2024/03/18 07:49:42;;;;;;;54.38;48.85;;;;;;;15.32;100.00;98742.84;5094266;28;20032;-45
2024/03/18 07:52:08;;;;;;;33.13;29.75;;;;;;;15.26;100.00;98741.13;5077412;28;20049;-46
2024/03/18 07:54:34;;;;;;;21.75;16.48;;;;;;;15.23;100.00;98744.25;5094181;28;20019;-46
2024/03/18 07:57:01;;;;;;;53.17;48.30;;;;;;;15.26;100.00;98751.69;5095383;28;20046;-46
2024/03/18 07:59:27;;;;;;;137.73;126.28;;;;;;;15.52;100.00;98752.28;5094023;28;20034;-46
2024/03/18 08:01:53;;;;;;;99.43;90.90;;;;;;;15.94;100.00;98754.81;5095004;28;20032;-46
2024/03/18 08:04:19;;;;;;;14.02;10.68;;;;;;;16.11;100.00;98753.03;5094922;28;20025;-46
2024/03/18 08:06:46;;;;;;;12.70;5.95;;;;;;;15.85;100.00;98758.84;5093602;28;20035;-45
2024/03/18 08:09:21;;;;;;;86.20;78.57;;;;;;;15.86;100.00;98757.81;5076802;28;20031;-45
2024/03/18 08:11:48;;;;;;;43.85;39.97;;;;;;;16.23;100.00;98766.22;5094777;28;20027;-46
2024/03/18 08:14:14;;;;;;;40.22;36.33;;;;;;;16.34;100.00;98759.31;5093585;28;20046;-46
2024/03/18 08:16:41;;;;;;;41.65;37.67;;;;;;;16.42;100.00;98750.97;5094457;28;20489;-46
2024/03/18 08:19:06;;;;;;;38.45;35.13;;;;;;;16.64;100.00;98759.06;5093363;28;20038;-46
2024/03/18 08:21:35;;;;;;;93.15;85.47;;;;;;;16.78;100.00;98765.66;5094638;28;20024;-46
2024/03/18 08:24:02;;;;;;;17.83;15.93;;;;;;;16.96;100.00;98764.69;5093067;28;20052;-46
2024/03/18 08:26:28;;;;;;;16.50;14.35;;;;;;;17.07;100.00;98770.94;5094591;28;20024;-46
2024/03/18 08:28:55;;;;;;;22.30;20.10;;;;;;;17.09;100.00;98765.41;5094486;28;20099;-46
2024/03/18 08:31:21;;;;;;;13.75;8.85;;;;;;;17.25;100.00;98774.41;5094410;28;20013;-46
2024/03/18 08:33:47;;;;;;;17.17;14.27;;;;;;;17.57;100.00;98766.66;5094394;28;20131;-47
2024/03/18 08:36:13;;;;;;;20.10;18.00;;;;;;;17.87;100.00;98770.81;5093085;28;20107;-46
2024/03/18 08:38:39;;;;;;;8.00;6.13;;;;;;;18.11;100.00;98772.19;5094332;28;20031;-46
2024/03/18 08:41:05;;;;;;;28.42;24.48;;;;;;;18.28;100.00;98776.63;5093015;28;20032;-46
2024/03/18 08:43:31;;;;;;;21.52;19.20;;;;;;;18.53;100.00;98765.47;5094637;28;20493;-47
2024/03/18 08:45:57;;;;;;;8.88;6.63;;;;;;;18.84;100.00;98763.16;5093090;28;20031;-47
2024/03/18 08:48:24;;;;;;;8.23;5.35;;;;;;;19.07;100.00;98762.78;5094274;28;20545;-46
2024/03/18 08:50:53;;;;;;;16.85;11.40;;;;;;;19.19;98.82;98764.50;5094111;28;20031;-47
2024/03/18 08:53:18;;;;;;;16.77;15.32;;;;;;;19.18;96.92;98763.69;5092759;28;20028;-47
2024/03/18 08:55:46;;;;;;;23.20;21.17;;;;;;;19.15;95.79;98759.66;5092617;28;20023;-47
2024/03/18 08:58:13;;;;;;;10.02;8.82;;;;;;;19.29;92.46;98767.22;5092942;28;20031;-47
2024/03/18 09:00:38;;;;;;;5.90;3.28;;;;;;;19.35;90.70;98772.31;5093925;28;20055;-47
2024/03/18 09:03:04;;;;;;;8.52;5.97;;;;;;;19.40;89.82;98768.09;5094520;28;20502;-47
2024/03/18 09:05:31;;;;;;;8.93;2.83;;;;;;;19.43;86.96;98773.69;5093673;28;20028;-47
2024/03/18 09:07:57;;;;;;;7.68;2.42;;;;;;;19.43;86.38;98771.03;5093788;28;20024;-47
2024/03/18 09:10:23;;;;;;;5.35;2.83;;;;;;;19.63;86.96;98773.03;5093752;28;20028;-47
2024/03/18 09:12:49;;;;;;;4.30;1.83;;;;;;;19.78;85.90;98769.69;5093660;28;20505;-47
2024/03/18 09:15:15;;;;;;;4.82;1.63;;;;;;;19.76;82.24;98769.16;5093659;28;20027;-47
2024/03/18 09:17:43;;;;;;;2.30;1.50;;;;;;;19.82;80.29;98772.63;5093528;28;20024;-47
2024/03/18 09:20:09;;;;;;;4.25;1.85;;;;;;;20.02;79.59;98764.75;5093516;28;20107;-47
2024/03/18 09:22:36;;;;;;;4.30;1.88;;;;;;;20.43;78.24;98775.56;5093451;28;20454;-47
2024/03/18 09:25:04;;;;;;;5.10;1.90;;;;;;;20.60;76.91;98777.22;5091925;28;20040;-47
2024/03/18 09:27:30;;;;;;;6.53;2.53;;;;;;;20.64;76.80;98784.41;5093331;28;20028;-47
2024/03/18 09:29:56;;;;;;;6.63;1.60;;;;;;;20.30;77.85;98784.03;5091315;28;20035;-47
2024/03/18 09:32:21;;;;;;;3.58;1.85;;;;;;;19.70;77.99;98794.13;5093215;28;20027;-47
2024/03/18 09:34:47;;;;;;;18.75;10.20;;;;;;;18.98;78.40;98798.09;5091990;28;20024;-47
2024/03/18 09:37:15;;;;;;;4.43;2.15;;;;;;;18.49;78.75;98806.88;5091835;28;20521;-47
2024/03/18 09:39:40;;;;;;;8.43;2.17;;;;;;;18.16;80.01;98805.97;5093085;28;20034;-47
2024/03/18 09:42:08;;;;;;;9.35;7.82;;;;;;;17.94;81.46;98814.72;5093108;28;20024;-47
2024/03/18 09:44:35;;;;;;;13.40;11.63;;;;;;;17.90;82.78;98813.59;5093002;28;20066;-47
2024/03/18 09:47:01;;;;;;;13.32;7.78;;;;;;;18.09;84.23;98813.31;5093010;28;20390;-47
2024/03/18 09:49:27;;;;;;;6.68;2.08;;;;;;;18.32;84.85;98815.72;5093187;28;20020;-48
2024/03/18 09:51:54;;;;;;;10.70;6.63;;;;;;;18.50;84.77;98811.16;5091588;28;20023;-47
2024/03/18 09:54:20;;;;;;;6.97;4.97;;;;;;;18.53;83.93;98822.09;5091569;28;20016;-47
2024/03/18 09:56:57;;;;;;;3.75;3.13;;;;;;;18.56;83.97;98823.44;5092795;28;20047;-47
2024/03/18 09:59:23;;;;;;;3.63;1.92;;;;;;;18.67;84.93;98821.69;5091546;28;20374;-47
2024/03/18 10:01:49;;;;;;;6.38;4.15;;;;;;;18.77;85.87;98811.97;5092765;28;20024;-46
2024/03/18 10:04:14;;;;;;;4.25;2.20;;;;;;;19.19;88.16;98815.84;5092647;28;20374;-47
2024/03/18 10:06:40;;;;;;;5.43;2.63;;;;;;;19.42;88.46;98813.88;5092863;28;20127;-47
2024/03/18 10:09:06;;;;;;;21.27;19.33;;;;;;;19.82;90.84;98821.41;5092587;28;20050;-47
2024/03/18 10:11:33;;;;;;;7.43;4.60;;;;;;;20.45;87.05;98818.75;5092515;28;20375;-47
2024/03/18 10:13:59;;;;;;;3.72;3.33;;;;;;;20.92;83.11;98817.81;5091211;28;20020;-47
2024/03/18 10:16:25;;;;;;;6.70;5.50;;;;;;;21.21;79.86;98813.81;5092507;28;20061;-47
2024/03/18 10:18:51;;;;;;;540.88;485.85;;;;;;;21.27;77.92;98815.41;5092384;28;20072;-48
2024/03/18 10:21:16;;;;;;;567.83;491.60;;;;;;;21.38;76.40;98814.38;5092352;28;20020;-47
2024/03/18 10:23:47;;;;;;;138.23;115.95;;;;;;;21.95;73.25;98812.41;5090891;28;20209;-48
2024/03/18 10:26:18;;;;;;;22.48;19.23;;;;;;;22.14;71.71;98802.75;5092276;28;20043;-47
2024/03/18 10:28:45;;;;;;;77.70;64.10;;;;;;;22.29;70.20;98812.59;5107707;28;20055;-48
2024/03/18 10:31:14;;;;;;;23.42;21.15;;;;;;;22.96;66.46;98811.41;5092511;28;20031;-48
2024/03/18 10:33:44;;;;;;;23.90;20.00;;;;;;;23.27;64.83;98812.81;5092173;28;20117;-48
2024/03/18 10:36:26;;;;;;;3.63;2.08;;;;;;;23.50;63.68;98808.63;5073992;28;20498;-48
2024/03/18 10:39:08;;;;;;;7.20;4.78;;;;;;;23.95;62.79;98799.63;5092451;28;20020;-48
2024/03/18 10:41:38;;;;;;;3.65;1.30;;;;;;;24.84;56.93;98799.81;5092024;28;20020;-48
2024/03/18 10:44:17;;;;;;;3.17;2.88;;;;;;;24.94;55.76;98806.13;5091023;28;20051;-48
2024/03/18 10:46:47;;;;;;;8.25;3.45;;;;;;;24.61;55.62;98801.50;5092005;28;20103;-47
2024/03/18 10:49:20;;;;;;;4.65;1.77;;;;;;;24.31;54.36;98805.34;5090587;28;20024;-48
2024/03/18 10:51:48;;;;;;;2.50;1.23;;;;;;;23.93;54.56;98805.25;5092244;28;20445;-48
2024/03/18 10:54:16;;;;;;;4.28;1.35;;;;;;;23.63;54.99;98796.44;5092199;28;20020;-48
2024/03/18 10:56:46;;;;;;;10.18;3.70;;;;;;;23.50;55.93;98797.91;5090615;28;20059;-47
2024/03/18 10:59:14;;;;;;;12.70;4.85;;;;;;;23.46;55.62;98807.59;5090640;28;20024;-48
2024/03/18 11:01:40;;;;;;;5.57;1.88;;;;;;;23.29;56.18;98802.63;5091865;28;20028;-48
2024/03/18 11:04:23;;;;;;;2.47;1.52;;;;;;;23.03;55.75;98795.88;5092068;28;20028;-48
2024/03/18 11:06:57;;;;;;;10.73;4.50;;;;;;;22.65;57.07;98798.25;5090903;28;20024;-48
2024/03/18 11:09:24;;;;;;;;;;;;;;;22.41;59.44;98793.56;5092233;28;20023;-48
2024/03/18 11:11:50;;;;;;;3.40;1.35;;;;;;;22.47;58.07;98797.81;5091751;28;19912;-47
2024/03/18 11:14:27;;;;;;;6.25;2.72;;;;;;;22.63;57.14;98797.72;5091679;28;20020;-48
2024/03/18 11:16:54;;;;;;;8.18;5.32;;;;;;;22.94;54.54;98787.63;5091731;28;20063;-48
2024/03/18 11:19:26;;;;;;;3.15;1.70;;;;;;;23.06;51.63;98792.63;5090395;28;20028;-47
2024/03/18 11:21:59;;;;;;;4.43;1.85;;;;;;;22.77;51.21;98800.59;5091675;28;20035;-47
2024/03/18 11:24:25;;;;;;;16.45;7.93;;;;;;;22.47;52.22;98789.78;5091286;28;20460;-48
2024/03/18 11:26:59;;;;;;;1.55;1.10;;;;;;;22.78;52.37;98805.69;5091619;28;20020;-48
2024/03/18 11:29:38;;;;;;;9.35;2.63;;;;;;;24.02;50.61;98795.50;5090360;28;20496;-48